Time;durP1;ratioP1;P1;durP2;ratioP2;P2;SDS_P1;SDS_P2;PMS_P1;PMS_P2;Temp;Humidity;BMP_temperature;BMP_pressure;BME280_temperature;BME280_humidity;BME280_pressure;Samples;Min_cycle;Max_cycle;Signal;HPM_P1;HPM_P2
2022/08/21 00:02:21;;;;;;;1.47;0.55;;;;;;;;;;1857103;77;26316;-51
2022/08/21 00:04:50;;;;;;;0.45;0.45;;;;;;;;;;1835835;77;26304;-54
2022/08/21 00:07:18;;;;;;;0.68;0.60;;;;;;;;;;1858318;77;26399;-53
2022/08/21 00:09:45;;;;;;;0.50;0.50;;;;;;;;;;1863916;77;26301;-52
2022/08/21 00:12:12;;;;;;;0.60;0.50;;;;;;;;;;1862587;76;26207;-50
2022/08/21 00:14:40;;;;;;;0.85;0.50;;;;;;;;;;1858921;77;26320;-50
2022/08/21 00:17:07;;;;;;;0.55;0.55;;;;;;;;;;1863317;76;26318;-52
2022/08/21 00:19:34;;;;;;;0.57;0.40;;;;;;;;;;1863588;77;26344;-53
2022/08/21 00:22:02;;;;;;;0.60;0.60;;;;;;;;;;1862975;77;26332;-52
2022/08/21 00:24:29;;;;;;;1.60;0.60;;;;;;;;;;1863924;77;26310;-48
2022/08/21 00:26:57;;;;;;;0.47;0.47;;;;;;;;;;1863802;76;26285;-50
2022/08/21 00:29:24;;;;;;;0.70;0.68;;;;;;;;;;1858930;77;26270;-50
2022/08/21 00:31:51;;;;;;;0.93;0.70;;;;;;;;;;1863660;77;26263;-53
2022/08/21 00:34:19;;;;;;;2.75;1.12;;;;;;;;;;1863789;77;26793;-51
2022/08/21 00:36:46;;;;;;;0.50;0.50;;;;;;;;;;1839320;77;26325;-52
2022/08/21 00:39:14;;;;;;;1.00;0.70;;;;;;;;;;1840003;77;26265;-53
2022/08/21 00:41:42;;;;;;;0.60;0.60;;;;;;;;;;1844049;77;26284;-53
2022/08/21 00:44:11;;;;;;;0.60;0.60;;;;;;;;;;1841353;76;26273;-53
2022/08/21 00:46:38;;;;;;;0.60;0.60;;;;;;;;;;1858662;76;26301;-54
2022/08/21 00:49:07;;;;;;;0.40;0.40;;;;;;;;;;1852035;75;26289;-54
2022/08/21 00:51:48;;;;;;;0.50;0.50;;;;;;;;;;1861582;77;26802;-53
2022/08/21 00:54:16;;;;;;;0.50;0.50;;;;;;;;;;1863173;77;26627;-54
2022/08/21 00:56:43;;;;;;;0.60;0.60;;;;;;;;;;1863861;77;26290;-54
2022/08/21 00:59:11;;;;;;;0.60;0.60;;;;;;;;;;1863191;77;26721;-53
2022/08/21 01:01:38;;;;;;;1.90;0.50;;;;;;;;;;1862658;77;26250;-54
2022/08/21 01:04:06;;;;;;;0.57;0.57;;;;;;;;;;1863422;76;26279;-53
2022/08/21 01:06:33;;;;;;;0.50;0.50;;;;;;;;;;1863710;76;26784;-53
2022/08/21 01:09:00;;;;;;;0.50;0.50;;;;;;;;;;1869778;76;26271;-53
2022/08/21 01:11:28;;;;;;;0.60;0.60;;;;;;;;;;1863390;77;26298;-53
2022/08/21 01:13:55;;;;;;;0.57;0.57;;;;;;;;;;1849507;77;26244;-54
2022/08/21 01:16:23;;;;;;;0.50;0.50;;;;;;;;;;1861909;76;26723;-54
2022/08/21 01:18:51;;;;;;;0.42;0.42;;;;;;;;;;1857112;77;26219;-53
2022/08/21 01:21:19;;;;;;;0.60;0.60;;;;;;;;;;1863233;77;26289;-54
2022/08/21 01:23:48;;;;;;;0.82;0.70;;;;;;;;;;1853159;77;26262;-54
2022/08/21 01:26:17;;;;;;;0.60;0.60;;;;;;;;;;1863717;77;26329;-53
2022/08/21 01:28:46;;;;;;;0.50;0.50;;;;;;;;;;1846055;76;26856;-54
2022/08/21 01:31:14;;;;;;;0.57;0.50;;;;;;;;;;1832470;77;26421;-54
2022/08/21 01:33:41;;;;;;;0.53;0.50;;;;;;;;;;1831551;77;26238;-54
2022/08/21 01:36:08;;;;;;;0.50;0.50;;;;;;;;;;1826169;77;26891;-55
2022/08/21 01:38:36;;;;;;;0.57;0.57;;;;;;;;;;1818596;77;26274;-54
2022/08/21 01:41:03;;;;;;;0.50;0.50;;;;;;;;;;1820074;77;26393;-54
2022/08/21 01:43:31;;;;;;;1.02;0.55;;;;;;;;;;1817600;77;26225;-53
2022/08/21 01:45:58;;;;;;;0.47;0.47;;;;;;;;;;1821840;77;26369;-49
2022/08/21 01:48:25;;;;;;;0.50;0.50;;;;;;;;;;1828115;77;26733;-55
2022/08/21 01:50:53;;;;;;;0.50;0.50;;;;;;;;;;1819297;77;26281;-54
2022/08/21 01:53:20;;;;;;;0.55;0.55;;;;;;;;;;1825749;77;26340;-55
2022/08/21 01:55:47;;;;;;;0.60;0.60;;;;;;;;;;1825228;77;26218;-53
2022/08/21 01:58:15;;;;;;;0.60;0.60;;;;;;;;;;1832249;77;26348;-54
2022/08/21 02:00:42;;;;;;;0.65;0.60;;;;;;;;;;1830715;77;26352;-54
2022/08/21 02:03:10;;;;;;;0.75;0.60;;;;;;;;;;1819983;77;26745;-54
2022/08/21 02:05:37;;;;;;;1.05;0.70;;;;;;;;;;1816303;77;26278;-52
2022/08/21 02:08:06;;;;;;;0.65;0.65;;;;;;;;;;1829626;77;26297;-52
2022/08/21 02:10:33;;;;;;;0.55;0.55;;;;;;;;;;1823882;77;26274;-52
2022/08/21 02:13:01;;;;;;;0.60;0.60;;;;;;;;;;1817737;77;26970;-49
2022/08/21 02:15:30;;;;;;;1.32;0.70;;;;;;;;;;1816466;77;26352;-50
2022/08/21 02:17:59;;;;;;;0.42;0.42;;;;;;;;;;1825292;77;26336;-53
2022/08/21 02:20:28;;;;;;;0.50;0.50;;;;;;;;;;1819914;77;26343;-54
2022/08/21 02:22:55;;;;;;;2.00;0.90;;;;;;;;;;1823410;77;26734;-53
2022/08/21 02:25:24;;;;;;;0.90;0.90;;;;;;;;;;1822171;77;26329;-54
2022/08/21 02:27:51;;;;;;;1.77;0.90;;;;;;;;;;1829129;77;26236;-52
2022/08/21 02:30:20;;;;;;;1.02;0.80;;;;;;;;;;1821365;75;26307;-51
2022/08/21 02:32:47;;;;;;;1.55;0.70;;;;;;;;;;1821417;77;26281;-53
2022/08/21 02:35:14;;;;;;;0.53;0.53;;;;;;;;;;1820218;77;26260;-55
2022/08/21 02:37:52;;;;;;;0.70;0.70;;;;;;;;;;1816114;77;27199;-53
2022/08/21 02:40:21;;;;;;;0.78;0.78;;;;;;;;;;1822643;77;26288;-51
2022/08/21 02:42:48;;;;;;;0.80;0.80;;;;;;;;;;1816180;77;26327;-52
2022/08/21 02:45:17;;;;;;;1.40;0.80;;;;;;;;;;1818259;77;26313;-54
2022/08/21 02:47:48;;;;;;;1.00;0.80;;;;;;;;;;1819807;77;26281;-52
2022/08/21 02:50:17;;;;;;;0.50;0.50;;;;;;;;;;1814805;77;26319;-54
2022/08/21 02:52:45;;;;;;;1.52;0.80;;;;;;;;;;1822499;77;26403;-53
2022/08/21 02:55:12;;;;;;;0.80;0.80;;;;;;;;;;1820450;77;25972;-54
2022/08/21 02:57:39;;;;;;;2.00;0.90;;;;;;;;;;1811410;77;26281;-49
2022/08/21 03:00:08;;;;;;;2.12;1.00;;;;;;;;;;1826659;77;26271;-50
2022/08/21 03:02:36;;;;;;;1.60;0.90;;;;;;;;;;1817794;77;26746;-53
2022/08/21 03:05:03;;;;;;;1.32;1.00;;;;;;;;;;1821836;77;26779;-53
2022/08/21 03:07:31;;;;;;;0.80;0.80;;;;;;;;;;1825437;77;25711;-53
2022/08/21 03:09:58;;;;;;;0.75;0.70;;;;;;;;;;1816826;77;26879;-50
2022/08/21 03:12:25;;;;;;;2.00;0.70;;;;;;;;;;1825214;77;26356;-54
2022/08/21 03:14:53;;;;;;;0.98;0.90;;;;;;;;;;1823361;77;26265;-53
2022/08/21 03:17:20;;;;;;;0.80;0.78;;;;;;;;;;1829658;77;27238;-53
2022/08/21 03:19:47;;;;;;;1.65;0.95;;;;;;;;;;1823601;77;26730;-50
2022/08/21 03:22:14;;;;;;;1.30;0.80;;;;;;;;;;1815929;77;26368;-53
2022/08/21 03:24:42;;;;;;;1.17;0.78;;;;;;;;;;1824325;77;26210;-47
2022/08/21 03:27:10;;;;;;;1.67;0.80;;;;;;;;;;1827904;77;26297;-52
2022/08/21 03:29:38;;;;;;;1.22;0.82;;;;;;;;;;1839882;76;26364;-54
2022/08/21 03:32:09;;;;;;;1.05;0.95;;;;;;;;;;1844190;76;26289;-52
2022/08/21 03:34:34;;;;;;;2.45;0.95;;;;;;;;;;1854447;77;27436;-53
2022/08/21 03:37:02;;;;;;;2.60;0.80;;;;;;;;;;1850831;76;26817;-53
2022/08/21 03:39:29;;;;;;;1.02;0.88;;;;;;;;;;1855573;76;26353;-53
2022/08/21 03:41:56;;;;;;;1.22;0.72;;;;;;;;;;1849990;77;26302;-53
2022/08/21 03:44:24;;;;;;;0.80;0.80;;;;;;;;;;1854083;76;26380;-52
2022/08/21 03:46:51;;;;;;;1.37;1.00;;;;;;;;;;1846823;75;26306;-51
2022/08/21 03:49:18;;;;;;;1.67;1.00;;;;;;;;;;1848038;76;26227;-52
2022/08/21 03:51:46;;;;;;;2.37;1.00;;;;;;;;;;1846163;76;26548;-52
2022/08/21 03:54:13;;;;;;;1.00;0.90;;;;;;;;;;1852547;76;26307;-53
2022/08/21 03:56:40;;;;;;;2.08;1.00;;;;;;;;;;1847299;76;26266;-53
2022/08/21 03:59:08;;;;;;;1.95;1.07;;;;;;;;;;1851073;76;26784;-52
2022/08/21 04:01:35;;;;;;;2.00;0.72;;;;;;;;;;1850998;76;26250;-53
2022/08/21 04:04:04;;;;;;;1.57;0.90;;;;;;;;;;1834072;76;26326;-50
2022/08/21 04:06:31;;;;;;;1.07;0.90;;;;;;;;;;1854465;76;26246;-52
2022/08/21 04:08:58;;;;;;;1.52;0.80;;;;;;;;;;1849553;77;26250;-54
2022/08/21 04:11:26;;;;;;;3.85;0.88;;;;;;;;;;1852046;76;26257;-52
2022/08/21 04:13:53;;;;;;;2.10;0.95;;;;;;;;;;1842494;76;26259;-54
2022/08/21 04:16:20;;;;;;;0.70;0.70;;;;;;;;;;1842084;76;26318;-54
2022/08/21 04:18:47;;;;;;;2.02;0.95;;;;;;;;;;1859646;76;26353;-52
2022/08/21 04:21:15;;;;;;;2.37;1.00;;;;;;;;;;1858581;76;26361;-54
2022/08/21 04:23:42;;;;;;;1.30;0.93;;;;;;;;;;1855067;76;26267;-49
2022/08/21 04:26:10;;;;;;;2.42;0.88;;;;;;;;;;1853386;77;26282;-53
2022/08/21 04:28:37;;;;;;;2.52;1.20;;;;;;;;;;1861195;77;26262;-54
2022/08/21 04:31:04;;;;;;;1.25;0.80;;;;;;;;;;1842843;76;26309;-53
2022/08/21 04:33:32;;;;;;;3.52;1.10;;;;;;;;;;1841468;76;26384;-53
2022/08/21 04:35:59;;;;;;;2.10;1.10;;;;;;;;;;1851470;76;26247;-54
2022/08/21 04:38:27;;;;;;;2.17;1.00;;;;;;;;;;1839499;75;26352;-54
2022/08/21 04:40:54;;;;;;;2.25;1.17;;;;;;;;;;1847051;76;26853;-54
2022/08/21 04:43:23;;;;;;;3.52;1.07;;;;;;;;;;1853784;76;26263;-53
2022/08/21 04:45:51;;;;;;;1.60;1.12;;;;;;;;;;1843448;76;26318;-54
2022/08/21 04:48:19;;;;;;;1.87;1.00;;;;;;;;;;1845735;76;26941;-53
2022/08/21 04:51:05;;;;;;;2.55;1.00;;;;;;;;;;1845121;76;26269;-52
2022/08/21 04:53:40;;;;;;;1.90;1.15;;;;;;;;;;1849579;77;26414;-52
2022/08/21 04:56:09;;;;;;;2.02;1.00;;;;;;;;;;1846134;77;26639;-55
2022/08/21 04:58:38;;;;;;;3.98;0.90;;;;;;;;;;1855816;76;27552;-50
2022/08/21 05:01:07;;;;;;;1.77;1.10;;;;;;;;;;1852004;76;26863;-53
2022/08/21 05:03:35;;;;;;;1.45;1.00;;;;;;;;;;1850152;76;26398;-54
2022/08/21 05:06:04;;;;;;;0.90;0.88;;;;;;;;;;1853205;76;26301;-54
2022/08/21 05:08:31;;;;;;;2.60;1.02;;;;;;;;;;1859579;76;26328;-54
2022/08/21 05:10:59;;;;;;;2.27;0.88;;;;;;;;;;1842705;76;26259;-53
2022/08/21 05:13:26;;;;;;;3.75;1.02;;;;;;;;;;1841040;76;26324;-52
2022/08/21 05:15:53;;;;;;;2.55;1.20;;;;;;;;;;1836525;76;26829;-53
2022/08/21 05:18:20;;;;;;;2.05;1.00;;;;;;;;;;1847257;76;26262;-54
2022/08/21 05:20:48;;;;;;;1.20;1.07;;;;;;;;;;1854012;76;26249;-50
2022/08/21 05:23:16;;;;;;;2.40;1.07;;;;;;;;;;1856586;77;26766;-54
2022/08/21 05:25:44;;;;;;;1.15;0.88;;;;;;;;;;1840214;76;26757;-51
2022/08/21 05:28:12;;;;;;;2.60;1.15;;;;;;;;;;1850216;75;26255;-54
2022/08/21 05:30:40;;;;;;;5.05;1.00;;;;;;;;;;1840688;76;26403;-53
2022/08/21 05:33:08;;;;;;;1.92;0.95;;;;;;;;;;1824510;77;26313;-50
2022/08/21 05:35:35;;;;;;;4.08;0.80;;;;;;;;;;1827219;77;26323;-53
2022/08/21 05:38:03;;;;;;;1.72;1.07;;;;;;;;;;1820693;77;26957;-53
2022/08/21 05:40:30;;;;;;;2.60;1.57;;;;;;;;;;1828253;77;26282;-54
2022/08/21 05:42:58;;;;;;;1.27;0.95;;;;;;;;;;1826532;77;26273;-53
2022/08/21 05:45:30;;;;;;;2.75;0.90;;;;;;;;;;1823997;77;26348;-51
2022/08/21 05:47:57;;;;;;;3.02;1.00;;;;;;;;;;1829571;77;26282;-54
2022/08/21 05:50:25;;;;;;;1.62;0.90;;;;;;;;;;1829838;77;26329;-52
2022/08/21 05:52:52;;;;;;;1.35;0.82;;;;;;;;;;1822257;77;26391;-54
2022/08/21 05:55:20;;;;;;;3.60;1.02;;;;;;;;;;1828978;77;26301;-52
2022/08/21 05:57:47;;;;;;;1.20;1.10;;;;;;;;;;1826972;77;26839;-53
2022/08/21 06:00:15;;;;;;;1.62;1.05;;;;;;;;;;1831554;77;27288;-53
2022/08/21 06:02:43;;;;;;;2.92;1.10;;;;;;;;;;1827081;77;26238;-52
2022/08/21 06:05:10;;;;;;;1.75;1.10;;;;;;;;;;1831335;77;26261;-55
2022/08/21 06:07:38;;;;;;;2.45;1.00;;;;;;;;;;1834197;77;26418;-52
2022/08/21 06:10:05;;;;;;;3.20;1.20;;;;;;;;;;1830409;77;26597;-50
2022/08/21 06:12:33;;;;;;;1.72;1.20;;;;;;;;;;1831496;77;26356;-55
2022/08/21 06:15:00;;;;;;;1.42;0.95;;;;;;;;;;1831198;77;26269;-53
2022/08/21 06:17:27;;;;;;;1.30;1.20;;;;;;;;;;1831514;77;25688;-54
2022/08/21 06:19:55;;;;;;;3.22;0.93;;;;;;;;;;1831690;77;26710;-53
2022/08/21 06:22:22;;;;;;;1.60;1.10;;;;;;;;;;1832884;77;26355;-50
2022/08/21 06:24:49;;;;;;;1.47;1.10;;;;;;;;;;1831365;77;26253;-54
2022/08/21 06:27:17;;;;;;;1.77;1.20;;;;;;;;;;1830207;77;26297;-51
2022/08/21 06:29:45;;;;;;;2.90;1.22;;;;;;;;;;1831530;77;26281;-51
2022/08/21 06:32:13;;;;;;;1.57;1.00;;;;;;;;;;1857968;76;26306;-51
2022/08/21 06:34:41;;;;;;;1.42;1.10;;;;;;;;;;1861136;76;26266;-54
2022/08/21 06:37:08;;;;;;;2.00;0.95;;;;;;;;;;1858221;76;26336;-54
2022/08/21 06:39:36;;;;;;;1.85;1.30;;;;;;;;;;1862551;76;26332;-55
2022/08/21 06:42:03;;;;;;;1.90;1.07;;;;;;;;;;1855584;76;26270;-54
2022/08/21 06:44:31;;;;;;;2.58;1.00;;;;;;;;;;1860142;76;26824;-55
2022/08/21 06:46:58;;;;;;;1.25;1.00;;;;;;;;;;1858655;76;26317;-52
2022/08/21 06:49:26;;;;;;;1.75;1.20;;;;;;;;;;1862252;76;26765;-53
2022/08/21 06:51:53;;;;;;;2.52;1.20;;;;;;;;;;1861733;76;26262;-55
2022/08/21 06:54:20;;;;;;;1.00;0.90;;;;;;;;;;1860225;76;26305;-53
2022/08/21 06:56:48;;;;;;;2.15;1.07;;;;;;;;;;1859745;76;26254;-53
2022/08/21 06:59:15;;;;;;;1.35;1.10;;;;;;;;;;1860195;76;26607;-47
2022/08/21 07:01:42;;;;;;;1.82;1.10;;;;;;;;;;1860122;76;26267;-53
2022/08/21 07:04:10;;;;;;;3.83;1.35;;;;;;;;;;1861419;76;26271;-55
2022/08/21 07:06:37;;;;;;;2.05;1.15;;;;;;;;;;1862971;76;27194;-48
2022/08/21 07:09:04;;;;;;;1.52;1.10;;;;;;;;;;1858632;76;26324;-52
2022/08/21 07:11:32;;;;;;;2.67;1.10;;;;;;;;;;1862412;76;26274;-55
2022/08/21 07:13:59;;;;;;;2.58;0.93;;;;;;;;;;1861425;76;26258;-54
2022/08/21 07:16:26;;;;;;;1.12;1.05;;;;;;;;;;1856099;76;26254;-54
2022/08/21 07:18:54;;;;;;;3.05;1.20;;;;;;;;;;1861367;76;26746;-54
2022/08/21 07:21:22;;;;;;;1.47;1.10;;;;;;;;;;1859381;76;26251;-50
2022/08/21 07:23:50;;;;;;;2.40;1.00;;;;;;;;;;1860888;76;26746;-53
2022/08/21 07:26:20;;;;;;;1.15;1.05;;;;;;;;;;1856739;75;27766;-52
2022/08/21 07:28:48;;;;;;;2.25;1.22;;;;;;;;;;1853382;76;26294;-54
2022/08/21 07:31:16;;;;;;;1.95;1.10;;;;;;;;;;1844923;76;26334;-52
2022/08/21 07:33:44;;;;;;;4.58;1.20;;;;;;;;;;1853717;76;26345;-52
2022/08/21 07:36:11;;;;;;;2.40;1.02;;;;;;;;;;1854702;76;26282;-51
2022/08/21 07:38:39;;;;;;;1.00;0.98;;;;;;;;;;1845727;76;27466;-52
2022/08/21 07:41:07;;;;;;;1.02;0.90;;;;;;;;;;1858834;76;26259;-54
2022/08/21 07:43:35;;;;;;;1.80;1.10;;;;;;;;;;1844738;76;26266;-53
2022/08/21 07:46:02;;;;;;;2.83;1.00;;;;;;;;;;1851335;76;26286;-53
2022/08/21 07:48:29;;;;;;;2.37;1.20;;;;;;;;;;1854229;76;26267;-68
2022/08/21 07:50:57;;;;;;;1.22;1.10;;;;;;;;;;1848081;76;26360;-54
2022/08/21 07:53:24;;;;;;;1.27;0.90;;;;;;;;;;1843716;76;26845;-53
2022/08/21 07:55:51;;;;;;;2.20;1.12;;;;;;;;;;1857161;76;26806;-50
2022/08/21 07:58:18;;;;;;;1.27;1.17;;;;;;;;;;1846699;76;26285;-50
2022/08/21 08:00:46;;;;;;;3.75;1.25;;;;;;;;;;1851804;76;26563;-52
2022/08/21 08:03:13;;;;;;;1.72;1.10;;;;;;;;;;1846829;76;26346;-53
2022/08/21 08:05:41;;;;;;;1.82;1.22;;;;;;;;;;1851052;76;26411;-51
2022/08/21 08:08:08;;;;;;;1.90;1.00;;;;;;;;;;1852547;76;27541;-53
2022/08/21 08:10:36;;;;;;;1.77;1.10;;;;;;;;;;1855252;76;26258;-53
2022/08/21 08:13:03;;;;;;;1.65;1.10;;;;;;;;;;1847114;76;26860;-53
2022/08/21 08:15:30;;;;;;;1.30;1.20;;;;;;;;;;1855318;76;26254;-47
2022/08/21 08:17:58;;;;;;;2.35;1.10;;;;;;;;;;1856206;76;26383;-53
2022/08/21 08:20:29;;;;;;;2.00;1.07;;;;;;;;;;1851521;76;26760;-53
2022/08/21 08:22:56;;;;;;;1.40;1.10;;;;;;;;;;1847487;76;26770;-54
2022/08/21 08:25:24;;;;;;;1.30;1.00;;;;;;;;;;1842085;76;26274;-51
2022/08/21 08:27:51;;;;;;;1.15;1.02;;;;;;;;;;1851524;76;26801;-54
2022/08/21 08:30:19;;;;;;;2.47;1.20;;;;;;;;;;1855371;76;26266;-50
2022/08/21 08:32:47;;;;;;;1.67;1.30;;;;;;;;;;1855796;76;26774;-54
2022/08/21 08:35:14;;;;;;;2.35;1.00;;;;;;;;;;1856758;76;26325;-54
2022/08/21 08:37:42;;;;;;;1.90;1.00;;;;;;;;;;1854126;77;26596;-52
2022/08/21 08:40:28;;;;;;;2.05;1.05;;;;;;;;;;1850736;76;26535;-53
2022/08/21 08:42:56;;;;;;;3.10;1.30;;;;;;;;;;1847313;76;26349;-55
2022/08/21 08:45:26;;;;;;;2.42;1.30;;;;;;;;;;1847574;76;26659;-54
2022/08/21 08:47:59;;;;;;;2.35;1.20;;;;;;;;;;1856761;76;26790;-54
2022/08/21 08:50:28;;;;;;;1.17;1.00;;;;;;;;;;1847573;76;26299;-54
2022/08/21 08:52:57;;;;;;;2.05;1.00;;;;;;;;;;1847039;76;26333;-53
2022/08/21 08:55:26;;;;;;;1.05;1.05;;;;;;;;;;1852732;76;26344;-51
2022/08/21 08:57:55;;;;;;;1.47;0.90;;;;;;;;;;1860056;75;26332;-55
2022/08/21 09:00:23;;;;;;;2.62;1.20;;;;;;;;;;1858503;76;26298;-54
2022/08/21 09:02:52;;;;;;;4.10;1.10;;;;;;;;;;1855499;76;26305;-54
2022/08/21 09:05:30;;;;;;;2.37;1.10;;;;;;;;;;1858064;76;26275;-49
2022/08/21 09:08:05;;;;;;;1.45;1.07;;;;;;;;;;1844304;75;26379;-52
2022/08/21 09:10:37;;;;;;;1.20;1.10;;;;;;;;;;1842622;76;26308;-51
2022/08/21 09:13:12;;;;;;;3.10;1.42;;;;;;;;;;1844325;76;26298;-54
2022/08/21 09:15:46;;;;;;;3.22;1.40;;;;;;;;;;1854836;76;26284;-52
2022/08/21 09:18:18;;;;;;;1.65;1.12;;;;;;;;;;1856705;76;26766;-53
2022/08/21 09:20:47;;;;;;;2.65;1.35;;;;;;;;;;1849648;76;26294;-52
2022/08/21 09:23:28;;;;;;;1.27;1.10;;;;;;;;;;1855984;76;26349;-51
2022/08/21 09:26:00;;;;;;;1.85;1.00;;;;;;;;;;1849444;76;26278;-52
2022/08/21 09:28:29;;;;;;;3.62;1.20;;;;;;;;;;1850958;75;26947;-53
2022/08/21 09:31:02;;;;;;;2.27;1.27;;;;;;;;;;1848581;76;26743;-54
2022/08/21 09:33:25;;;;;;;2.80;1.17;;;;;;;;;;1849828;75;26378;-54
2022/08/21 09:35:54;;;;;;;6.30;1.20;;;;;;;;;;1856269;75;26314;-53
2022/08/21 09:38:26;;;;;;;1.45;1.00;;;;;;;;;;1845092;77;26384;-52
2022/08/21 09:40:54;;;;;;;3.80;1.20;;;;;;;;;;1847775;75;26287;-54
2022/08/21 09:43:23;;;;;;;1.47;1.20;;;;;;;;;;1857697;77;26328;-53
2022/08/21 09:45:52;;;;;;;1.57;1.20;;;;;;;;;;1855820;77;26278;-51
2022/08/21 09:48:24;;;;;;;1.42;1.00;;;;;;;;;;1848971;75;26290;-49
2022/08/21 09:50:53;;;;;;;2.15;1.10;;;;;;;;;;1845747;76;26297;-53
2022/08/21 09:53:24;;;;;;;2.00;1.20;;;;;;;;;;1848230;75;26381;-51
2022/08/21 09:58:46;;;;;;;4.45;1.20;;;;;;;;;;1866078;75;26336;-55
2022/08/21 10:01:18;;;;;;;1.10;1.00;;;;;;;;;;1862879;76;26270;-55
2022/08/21 10:03:46;;;;;;;2.52;1.02;;;;;;;;;;1858385;77;26735;-55
2022/08/21 10:06:27;;;;;;;1.10;1.00;;;;;;;;;;1860715;77;26381;-51
2022/08/21 10:09:05;;;;;;;3.67;1.15;;;;;;;;;;1856231;75;26856;-55
2022/08/21 10:11:34;;;;;;;2.08;1.10;;;;;;;;;;1861664;77;26904;-55
2022/08/21 10:14:08;;;;;;;5.20;1.12;;;;;;;;;;1862136;75;26278;-55
2022/08/21 10:16:40;;;;;;;1.80;1.10;;;;;;;;;;1850741;75;26785;-55
2022/08/21 10:19:09;;;;;;;4.17;1.12;;;;;;;;;;1858199;75;26302;-55
2022/08/21 10:21:38;;;;;;;3.70;1.37;;;;;;;;;;1860783;75;26274;-54
2022/08/21 10:24:15;;;;;;;3.02;1.20;;;;;;;;;;1861248;75;26662;-55
2022/08/21 10:26:47;;;;;;;4.58;1.30;;;;;;;;;;1857515;75;26223;-53
2022/08/21 10:29:33;;;;;;;11.15;4.58;;;;;;;;;;1853792;75;26259;-54
2022/08/21 10:32:17;;;;;;;8.13;5.10;;;;;;;;;;1860588;75;26273;-54
2022/08/21 10:34:46;;;;;;;8.73;4.97;;;;;;;;;;1853930;75;26848;-52
2022/08/21 10:37:26;;;;;;;16.32;8.73;;;;;;;;;;1847435;75;26731;-49
2022/08/21 10:40:05;;;;;;;21.30;14.33;;;;;;;;;;1852817;75;26332;-53
2022/08/21 10:42:34;;;;;;;16.75;11.95;;;;;;;;;;1861745;75;26359;-53
2022/08/21 10:45:14;;;;;;;16.07;10.38;;;;;;;;;;1861480;75;26274;-54
2022/08/21 10:47:44;;;;;;;12.13;8.55;;;;;;;;;;1853183;75;26269;-49
2022/08/21 10:50:13;;;;;;;9.83;6.90;;;;;;;;;;1860939;75;26403;-51
2022/08/21 10:52:42;;;;;;;8.83;6.17;;;;;;;;;;1851337;75;26318;-52
2022/08/21 10:55:14;;;;;;;10.30;5.45;;;;;;;;;;1858620;76;26271;-55
2022/08/21 10:57:48;;;;;;;4.50;3.92;;;;;;;;;;1859289;75;26285;-56
2022/08/21 11:00:17;;;;;;;5.25;3.35;;;;;;;;;;1862559;75;27377;-53
2022/08/21 11:02:49;;;;;;;5.12;3.08;;;;;;;;;;1861981;75;26727;-56
2022/08/21 11:05:22;;;;;;;4.05;2.87;;;;;;;;;;1860725;75;27429;-57
2022/08/21 11:07:50;;;;;;;4.33;2.35;;;;;;;;;;1861944;75;26289;-55
2022/08/21 11:10:25;;;;;;;3.10;2.00;;;;;;;;;;1858633;75;26727;-56
2022/08/21 11:12:54;;;;;;;2.27;1.92;;;;;;;;;;1858078;75;26294;-55
2022/08/21 11:15:26;;;;;;;2.15;1.77;;;;;;;;;;1857979;75;26327;-57
2022/08/21 11:17:55;;;;;;;2.35;1.70;;;;;;;;;;1859779;75;26263;-55
2022/08/21 11:20:24;;;;;;;1.90;1.70;;;;;;;;;;1866319;75;26729;-53
2022/08/21 11:22:54;;;;;;;3.02;1.40;;;;;;;;;;1860873;75;26643;-50
2022/08/21 11:25:23;;;;;;;4.28;1.77;;;;;;;;;;1858799;75;26384;-49
2022/08/21 11:27:55;;;;;;;1.67;1.35;;;;;;;;;;1861640;75;26713;-50
2022/08/21 11:30:24;;;;;;;4.05;1.40;;;;;;;;;;1859595;75;26317;-48
2022/08/21 11:33:10;;;;;;;3.83;1.42;;;;;;;;;;1861801;75;26297;-55
2022/08/21 11:35:39;;;;;;;1.35;1.20;;;;;;;;;;1858882;76;26750;-56
2022/08/21 11:38:10;;;;;;;1.72;1.40;;;;;;;;;;1859832;76;26274;-54
2022/08/21 11:40:39;;;;;;;1.87;1.25;;;;;;;;;;1859291;76;26337;-55
2022/08/21 11:43:08;;;;;;;1.60;1.30;;;;;;;;;;1863560;76;26508;-56
2022/08/21 11:45:40;;;;;;;2.20;1.45;;;;;;;;;;1860745;76;26290;-55
2022/08/21 11:48:25;;;;;;;1.10;1.10;;;;;;;;;;1856305;76;26286;-50
2022/08/21 11:50:53;;;;;;;1.67;1.45;;;;;;;;;;1843460;75;26391;-54
2022/08/21 11:53:25;;;;;;;1.65;1.40;;;;;;;;;;1853335;75;26352;-53
2022/08/21 11:55:55;;;;;;;1.62;1.40;;;;;;;;;;1855399;75;26322;-55
2022/08/21 11:58:27;;;;;;;1.65;1.32;;;;;;;;;;1855263;75;26784;-54
2022/08/21 12:00:55;;;;;;;2.83;1.37;;;;;;;;;;1858609;75;26325;-52
2022/08/21 12:03:27;;;;;;;1.98;1.20;;;;;;;;;;1856763;75;26362;-53
2022/08/21 12:05:56;;;;;;;3.20;1.30;;;;;;;;;;1857561;75;26332;-52
2022/08/21 12:08:30;;;;;;;1.62;1.10;;;;;;;;;;1857089;75;26302;-53
2022/08/21 12:11:02;;;;;;;1.27;1.15;;;;;;;;;;1853610;75;26274;-54
2022/08/21 12:13:31;;;;;;;3.67;1.50;;;;;;;;;;1858458;76;26274;-54
2022/08/21 12:16:09;;;;;;;1.62;1.30;;;;;;;;;;1851903;75;26601;-49
2022/08/21 12:18:37;;;;;;;1.82;1.27;;;;;;;;;;1856302;75;26293;-49
2022/08/21 12:21:18;;;;;;;1.70;1.10;;;;;;;;;;1861207;76;26274;-51
2022/08/21 12:23:47;;;;;;;5.33;1.30;;;;;;;;;;1857821;75;26372;-49
2022/08/21 12:26:16;;;;;;;5.20;1.85;;;;;;;;;;1857213;75;26274;-49
2022/08/21 12:28:44;;;;;;;1.87;1.40;;;;;;;;;;1848949;76;26231;-56
2022/08/21 12:31:24;;;;;;;5.00;1.50;;;;;;;;;;1860736;76;26285;-52
2022/08/21 12:33:53;;;;;;;1.92;1.30;;;;;;;;;;1857873;75;26246;-52
2022/08/21 12:36:24;;;;;;;2.92;1.50;;;;;;;;;;1857551;75;27524;-48
2022/08/21 12:38:58;;;;;;;4.90;1.37;;;;;;;;;;1856926;75;26290;-51
2022/08/21 12:41:30;;;;;;;5.03;1.60;;;;;;;;;;1856245;75;26270;-49
2022/08/21 12:43:59;;;;;;;4.28;1.50;;;;;;;;;;1858209;75;26324;-46
2022/08/21 12:46:40;;;;;;;2.02;1.20;;;;;;;;;;1859937;75;26269;-55
2022/08/21 12:49:12;;;;;;;3.02;1.45;;;;;;;;;;1851812;75;26280;-54
2022/08/21 12:51:53;;;;;;;4.00;1.40;;;;;;;;;;1851453;75;26270;-55
2022/08/21 12:54:24;;;;;;;2.08;1.80;;;;;;;;;;1853704;75;26281;-50
2022/08/21 12:56:59;;;;;;;3.87;1.50;;;;;;;;;;1858466;75;26733;-50
2022/08/21 12:59:27;;;;;;;2.77;1.30;;;;;;;;;;1857455;75;26840;-49
2022/08/21 13:01:55;;;;;;;1.85;1.20;;;;;;;;;;1860741;75;26266;-46
2022/08/21 13:04:27;;;;;;;4.92;1.70;;;;;;;;;;1857146;77;26277;-46
2022/08/21 13:06:56;;;;;;;2.85;1.35;;;;;;;;;;1854902;75;26312;-47
2022/08/21 13:09:25;;;;;;;3.25;1.40;;;;;;;;;;1852431;75;26344;-49
2022/08/21 13:11:52;;;;;;;2.17;1.37;;;;;;;;;;1857660;75;26334;-49
2022/08/21 13:14:21;;;;;;;2.37;1.30;;;;;;;;;;1857938;75;26917;-51
2022/08/21 13:16:50;;;;;;;3.98;1.50;;;;;;;;;;1852295;75;26259;-51
2022/08/21 13:19:18;;;;;;;2.75;1.55;;;;;;;;;;1859268;75;26270;-53
2022/08/21 13:21:46;;;;;;;2.35;1.20;;;;;;;;;;1862516;75;26546;-48
2022/08/21 13:24:15;;;;;;;4.12;1.50;;;;;;;;;;1859651;75;26345;-51
2022/08/21 13:26:42;;;;;;;2.27;1.32;;;;;;;;;;1858187;75;26350;-52
2022/08/21 13:29:11;;;;;;;1.55;1.30;;;;;;;;;;1863269;77;26657;-51
2022/08/21 13:31:39;;;;;;;1.57;1.10;;;;;;;;;;1861591;77;26308;-49
2022/08/21 13:34:08;;;;;;;1.12;1.10;;;;;;;;;;1857315;77;26315;-52
2022/08/21 13:36:36;;;;;;;2.00;1.30;;;;;;;;;;1860440;75;26377;-51
2022/08/21 13:39:05;;;;;;;2.95;1.07;;;;;;;;;;1860150;76;26302;-52
2022/08/21 13:41:34;;;;;;;1.12;1.05;;;;;;;;;;1857562;76;26246;-53
2022/08/21 13:44:03;;;;;;;2.77;0.93;;;;;;;;;;1857547;75;26332;-45
2022/08/21 13:46:32;;;;;;;1.00;1.00;;;;;;;;;;1855377;76;26301;-47
2022/08/21 13:49:00;;;;;;;1.30;1.20;;;;;;;;;;1854724;76;26359;-49
2022/08/21 13:51:28;;;;;;;2.05;1.10;;;;;;;;;;1858604;76;26264;-47
2022/08/21 13:53:55;;;;;;;4.20;1.22;;;;;;;;;;1859428;76;26328;-47
2022/08/21 13:56:25;;;;;;;1.80;1.00;;;;;;;;;;1858035;75;26640;-47
2022/08/21 13:58:53;;;;;;;1.85;0.90;;;;;;;;;;1864113;75;26304;-48
2022/08/21 14:01:28;;;;;;;3.00;0.90;;;;;;;;;;1852056;76;26891;-47
2022/08/21 14:04:01;;;;;;;1.20;1.10;;;;;;;;;;1851108;76;26865;-48
2022/08/21 14:06:27;;;;;;;1.05;0.98;;;;;;;;;;1842713;75;26316;-49
2022/08/21 14:08:57;;;;;;;1.52;1.12;;;;;;;;;;1848901;77;26298;-50
2022/08/21 14:11:25;;;;;;;3.55;1.20;;;;;;;;;;1844218;75;26359;-49
2022/08/21 14:13:57;;;;;;;1.20;0.95;;;;;;;;;;1860450;76;26275;-52
2022/08/21 14:16:25;;;;;;;0.82;0.80;;;;;;;;;;1855862;75;26324;-52
2022/08/21 14:18:54;;;;;;;0.85;0.85;;;;;;;;;;1855224;76;26248;-50
2022/08/21 14:21:29;;;;;;;0.93;0.82;;;;;;;;;;1855797;76;26270;-50
2022/08/21 14:24:00;;;;;;;5.87;1.12;;;;;;;;;;1849731;76;26666;-49
2022/08/21 14:26:28;;;;;;;1.40;0.93;;;;;;;;;;1848748;77;26266;-51
2022/08/21 14:28:57;;;;;;;2.80;1.50;;;;;;;;;;1863860;76;26215;-51
2022/08/21 14:31:25;;;;;;;1.77;1.10;;;;;;;;;;1862759;76;26294;-48
2022/08/21 14:33:53;;;;;;;0.93;0.90;;;;;;;;;;1859420;76;26339;-51
2022/08/21 14:36:20;;;;;;;1.07;1.00;;;;;;;;;;1861828;75;26312;-50
2022/08/21 14:38:48;;;;;;;1.10;1.00;;;;;;;;;;1861150;75;26202;-50
2022/08/21 14:41:16;;;;;;;5.55;1.02;;;;;;;;;;1862143;75;26376;-51
2022/08/21 14:43:45;;;;;;;1.98;0.93;;;;;;;;;;1859371;77;26278;-51
2022/08/21 14:46:14;;;;;;;1.98;1.05;;;;;;;;;;1863155;76;26348;-49
2022/08/21 14:48:42;;;;;;;1.10;0.98;;;;;;;;;;1873449;76;26323;-51
2022/08/21 14:51:09;;;;;;;3.33;1.25;;;;;;;;;;1853670;75;26757;-49
2022/08/21 14:53:37;;;;;;;3.42;1.40;;;;;;;;;;1858449;75;26203;-51
2022/08/21 14:56:06;;;;;;;1.40;1.30;;;;;;;;;;1853525;75;26274;-49
2022/08/21 14:58:35;;;;;;;3.00;1.52;;;;;;;;;;1860540;75;26346;-50